createdAt,value
2018-03-30T00:00:05.668Z,98349.72
2018-03-30T00:02:33.544Z,98348.43
2018-03-30T00:05:01.132Z,98345.28
2018-03-30T00:07:28.688Z,98342.77
2018-03-30T00:09:56.371Z,98343.16
2018-03-30T00:12:24.192Z,98342.62
2018-03-30T00:14:51.995Z,98335.88
2018-03-30T00:17:20.043Z,98333.63
2018-03-30T00:19:47.695Z,98336.22
2018-03-30T00:22:18.667Z,98328.41
2018-03-30T00:24:47.482Z,98332.81
2018-03-30T00:27:15.893Z,98328.00
2018-03-30T00:29:44.548Z,98319.54
2018-03-30T00:32:13.718Z,98320.79
2018-03-30T00:34:41.240Z,98315.44
2018-03-30T00:37:08.904Z,98310.66
2018-03-30T00:39:37.799Z,98320.45
2018-03-30T00:42:05.368Z,98308.05
2018-03-30T00:44:34.118Z,98315.96
2018-03-30T00:47:01.725Z,98307.79
2018-03-30T00:49:32.309Z,98297.58
2018-03-30T00:52:01.129Z,98306.77
2018-03-30T00:54:29.033Z,98306.69
2018-03-30T00:56:57.050Z,98295.03
2018-03-30T00:59:25.431Z,98298.06
2018-03-30T01:01:54.882Z,98300.08
2018-03-30T01:04:23.613Z,98294.90
2018-03-30T01:06:51.996Z,98299.45
2018-03-30T01:09:19.526Z,98295.89
2018-03-30T01:11:47.315Z,98292.71
2018-03-30T01:14:14.881Z,98286.41
2018-03-30T01:16:42.435Z,98276.03
2018-03-30T01:19:09.983Z,98281.50
2018-03-30T01:21:38.296Z,98278.47
2018-03-30T01:24:05.803Z,98277.81
2018-03-30T01:26:33.359Z,98272.02
2018-03-30T01:29:00.890Z,98268.80
2018-03-30T01:31:28.456Z,98263.68
2018-03-30T01:33:56.001Z,98274.52
2018-03-30T01:36:23.551Z,98263.20
2018-03-30T01:38:51.097Z,98276.86
2018-03-30T01:41:18.740Z,98273.08
2018-03-30T01:43:46.259Z,98265.96
2018-03-30T01:46:13.812Z,98265.45
2018-03-30T01:48:41.346Z,98273.78
2018-03-30T01:51:08.896Z,98257.59
2018-03-30T01:53:36.452Z,98265.06
2018-03-30T01:56:04.044Z,98253.21
2018-03-30T01:58:31.571Z,98252.63
2018-03-30T02:00:59.147Z,98248.70
2018-03-30T02:03:26.667Z,98237.28
2018-03-30T02:05:54.195Z,98234.58
2018-03-30T02:08:21.748Z,98227.69
2018-03-30T02:10:49.279Z,98216.84
2018-03-30T02:13:16.851Z,98226.17
2018-03-30T02:15:44.380Z,98223.41
2018-03-30T02:18:11.955Z,98221.55
2018-03-30T02:20:39.494Z,98233.00
2018-03-30T02:23:07.142Z,98217.95
2018-03-30T02:25:34.668Z,98221.91
2018-03-30T02:28:02.221Z,98222.00
2018-03-30T02:30:29.764Z,98216.92
2018-03-30T02:32:57.329Z,98219.70
2018-03-30T02:35:24.876Z,98222.88
2018-03-30T02:37:52.485Z,98221.81
2018-03-30T02:40:20.009Z,98228.56
2018-03-30T02:42:47.595Z,98221.76
2018-03-30T02:45:15.134Z,98213.88
2018-03-30T02:47:42.883Z,98207.48
2018-03-30T02:50:10.474Z,98207.64
2018-03-30T02:52:38.033Z,98199.20
2018-03-30T02:55:05.576Z,98208.20
2018-03-30T02:57:33.157Z,98206.36
2018-03-30T03:00:00.735Z,98210.84
2018-03-30T03:02:28.294Z,98200.73
2018-03-30T03:04:55.824Z,98196.58
2018-03-30T03:07:23.412Z,98190.30
2018-03-30T03:09:50.927Z,98191.47
2018-03-30T03:12:18.501Z,98195.61
2018-03-30T03:14:46.020Z,98189.91
2018-03-30T03:17:13.650Z,98199.70
2018-03-30T03:19:41.516Z,98202.03
2018-03-30T03:22:09.075Z,98198.76
2018-03-30T03:24:36.600Z,98196.14
2018-03-30T03:27:04.151Z,98181.58
2018-03-30T03:29:31.679Z,98182.09
2018-03-30T03:31:59.251Z,98176.67
2018-03-30T03:34:26.772Z,98167.64
2018-03-30T03:36:54.319Z,98164.16
2018-03-30T03:39:21.890Z,98148.19
2018-03-30T03:41:49.446Z,98153.14
2018-03-30T03:44:17.016Z,98148.78
2018-03-30T03:46:44.569Z,98164.30
2018-03-30T03:49:12.123Z,98150.20
2018-03-30T03:51:40.553Z,98137.88
2018-03-30T03:54:08.169Z,98140.68
2018-03-30T03:56:35.706Z,98137.70
2018-03-30T03:59:03.279Z,98138.77
2018-03-30T04:01:30.810Z,98144.86
2018-03-30T04:03:58.378Z,98155.03
2018-03-30T04:06:25.912Z,98145.69
2018-03-30T04:08:53.464Z,98157.11
2018-03-30T04:11:20.992Z,98149.01
2018-03-30T04:13:48.638Z,98145.84
2018-03-30T04:16:16.197Z,98144.56
2018-03-30T04:18:43.767Z,98147.23
2018-03-30T04:21:11.320Z,98144.52
2018-03-30T04:23:38.878Z,98137.00
2018-03-30T04:26:06.404Z,98133.43
2018-03-30T04:28:34.047Z,98123.00
2018-03-30T04:31:01.564Z,98132.87
2018-03-30T04:33:29.111Z,98136.53
2018-03-30T04:35:56.635Z,98125.77
2018-03-30T04:38:24.183Z,98126.84
2018-03-30T04:40:51.725Z,98127.59
2018-03-30T04:43:19.292Z,98127.00
2018-03-30T04:45:46.820Z,98125.20
2018-03-30T04:48:14.371Z,98113.38
2018-03-30T04:50:41.930Z,98116.86
2018-03-30T04:53:09.479Z,98117.33
2018-03-30T04:55:36.998Z,98119.37
2018-03-30T04:58:04.559Z,98112.98
2018-03-30T05:00:32.077Z,98104.84
2018-03-30T05:02:59.641Z,98108.63
2018-03-30T05:05:27.159Z,98106.54
2018-03-30T05:07:54.787Z,98114.45
2018-03-30T05:10:22.262Z,98113.70
2018-03-30T05:12:49.798Z,98113.66
2018-03-30T05:15:17.355Z,98117.72
2018-03-30T05:17:44.896Z,98111.61
2018-03-30T05:20:12.456Z,98116.43
2018-03-30T05:22:39.992Z,98114.59
2018-03-30T05:25:07.560Z,98114.88
2018-03-30T05:27:35.079Z,98119.38
2018-03-30T05:30:02.627Z,98115.89
2018-03-30T05:32:30.165Z,98112.94
2018-03-30T05:34:57.739Z,98117.22
2018-03-30T05:37:25.263Z,98112.20
2018-03-30T05:39:52.825Z,98113.63
2018-03-30T05:42:20.344Z,98113.31
2018-03-30T05:44:47.928Z,98097.88
2018-03-30T05:47:15.452Z,98100.22
2018-03-30T05:49:42.999Z,98098.53
2018-03-30T05:52:10.523Z,98098.39
2018-03-30T05:54:38.087Z,98103.40
2018-03-30T05:57:05.608Z,98099.48
2018-03-30T05:59:33.165Z,98103.06
2018-03-30T06:02:00.712Z,98098.06
2018-03-30T06:04:28.270Z,98090.53
2018-03-30T06:06:55.849Z,98082.20
2018-03-30T06:09:23.898Z,98085.68
2018-03-30T06:11:51.420Z,98093.02
2018-03-30T06:14:18.982Z,98088.87
2018-03-30T06:16:46.598Z,98087.13
2018-03-30T06:19:14.673Z,98076.77
2018-03-30T06:21:42.214Z,98073.45
2018-03-30T06:24:09.792Z,98086.09
2018-03-30T06:26:37.388Z,98072.52
2018-03-30T06:29:05.067Z,98077.05
2018-03-30T06:31:32.678Z,98075.48
2018-03-30T06:34:00.244Z,98076.42
2018-03-30T06:36:27.775Z,98073.38
2018-03-30T06:38:55.327Z,98074.77
2018-03-30T06:41:24.184Z,98080.94
2018-03-30T06:43:51.730Z,98085.81
2018-03-30T06:46:19.255Z,98061.38
2018-03-30T06:48:46.794Z,98058.11
2018-03-30T06:51:14.419Z,98065.19
2018-03-30T06:53:42.254Z,98058.93
2018-03-30T06:56:09.838Z,98054.03
2018-03-30T06:58:37.692Z,98048.84
2018-03-30T07:01:07.116Z,98050.53
2018-03-30T07:03:34.866Z,98048.58
2018-03-30T07:06:02.624Z,98058.34
2018-03-30T07:08:30.253Z,98045.57
2018-03-30T07:10:57.821Z,98043.30
2018-03-30T07:13:25.359Z,98041.26
2018-03-30T07:15:53.110Z,98038.51
2018-03-30T07:18:20.639Z,98033.05
2018-03-30T07:20:48.235Z,98024.32
2018-03-30T07:23:15.841Z,98018.28
2018-03-30T07:25:43.410Z,98007.45
2018-03-30T07:28:10.971Z,98013.59
2018-03-30T07:30:38.523Z,98015.94
2018-03-30T07:33:06.080Z,98006.68
2018-03-30T07:35:33.630Z,98001.45
2018-03-30T07:38:01.165Z,97998.28
2018-03-30T07:40:28.723Z,97989.70
2018-03-30T07:42:56.251Z,97988.27
2018-03-30T07:45:23.806Z,97979.36
2018-03-30T07:47:51.316Z,97982.38
2018-03-30T07:50:18.872Z,97974.84
2018-03-30T07:52:46.417Z,97971.80
2018-03-30T07:55:13.977Z,97977.56
2018-03-30T07:57:41.536Z,97986.05
2018-03-30T08:00:09.092Z,97982.28
2018-03-30T08:02:36.604Z,97983.58
2018-03-30T08:05:04.914Z,97973.48
2018-03-30T08:07:32.444Z,97973.22
2018-03-30T08:10:00.014Z,97977.05
2018-03-30T08:12:27.551Z,97957.16
2018-03-30T08:14:55.116Z,97953.22
2018-03-30T08:17:22.638Z,97951.44
2018-03-30T08:19:50.225Z,97948.56
2018-03-30T08:22:17.896Z,97944.27
2018-03-30T08:24:45.411Z,97938.05
2018-03-30T08:27:18.077Z,97940.23
2018-03-30T08:29:46.652Z,97934.23
2018-03-30T08:32:14.199Z,97934.91
2018-03-30T08:34:41.729Z,97917.37
2018-03-30T08:37:10.548Z,97927.52
2018-03-30T08:39:38.139Z,97915.59
2018-03-30T08:42:05.694Z,97915.57
2018-03-30T08:44:33.314Z,97913.08
2018-03-30T08:47:00.867Z,97918.81
2018-03-30T08:49:28.398Z,97912.66
2018-03-30T08:51:55.948Z,97897.09
2018-03-30T08:54:23.522Z,97895.21
2018-03-30T08:56:51.084Z,97894.84
2018-03-30T08:59:21.757Z,97891.84
2018-03-30T09:01:53.081Z,97889.20
2018-03-30T09:04:25.468Z,97882.56
2018-03-30T09:06:53.375Z,97872.81
2018-03-30T09:09:20.912Z,97866.78
2018-03-30T09:11:48.462Z,97860.27
2018-03-30T09:14:16.825Z,97858.48
2018-03-30T09:16:44.383Z,97851.08
2018-03-30T09:19:11.900Z,97847.73
2018-03-30T09:21:42.735Z,97843.25
2018-03-30T09:24:13.193Z,97824.43
2018-03-30T09:26:40.932Z,97813.98
2018-03-30T09:29:08.482Z,97812.08
2018-03-30T09:31:36.874Z,97786.41
2018-03-30T09:34:05.200Z,97778.41
2018-03-30T09:36:32.891Z,97782.66
2018-03-30T09:39:01.193Z,97764.94
2018-03-30T09:41:28.918Z,97748.59
2018-03-30T09:43:56.660Z,97748.56
2018-03-30T09:46:24.268Z,97745.81
2018-03-30T09:48:51.898Z,97753.31
2018-03-30T09:51:19.812Z,97767.83
2018-03-30T09:53:47.762Z,97768.86
2018-03-30T09:56:15.497Z,97780.16
2018-03-30T09:58:43.101Z,97772.33
2018-03-30T10:01:16.536Z,97768.69
2018-03-30T10:03:49.890Z,97765.68
2018-03-30T10:06:18.304Z,97765.63
2018-03-30T10:08:46.167Z,97753.19
2018-03-30T10:11:13.991Z,97742.23
2018-03-30T10:13:41.533Z,97746.05
2018-03-30T10:16:09.128Z,97735.59
2018-03-30T10:18:36.693Z,97738.16
2018-03-30T10:21:04.196Z,97734.52
2018-03-30T10:23:33.577Z,97730.78
2018-03-30T10:26:01.223Z,97722.70
2018-03-30T10:28:29.685Z,97730.72
2018-03-30T10:30:57.236Z,97721.97
2018-03-30T10:33:24.809Z,97715.87
2018-03-30T10:35:52.501Z,97715.37
2018-03-30T10:38:20.051Z,97713.73
2018-03-30T10:40:47.575Z,97711.38
2018-03-30T10:43:15.764Z,97718.35
2018-03-30T10:45:43.284Z,97711.23
2018-03-30T10:48:10.828Z,97718.08
2018-03-30T10:50:38.341Z,97715.09
2018-03-30T10:53:05.912Z,97713.67
2018-03-30T10:55:34.407Z,97705.38
2018-03-30T10:58:03.002Z,97701.78
2018-03-30T11:00:30.517Z,97700.52
2018-03-30T11:02:58.077Z,97697.42
2018-03-30T11:05:25.614Z,97683.63
2018-03-30T11:07:53.179Z,97684.02
2018-03-30T11:10:20.694Z,97677.22
2018-03-30T11:12:48.256Z,97679.27
2018-03-30T11:15:15.821Z,97676.41
2018-03-30T11:17:43.383Z,97673.22
2018-03-30T11:20:10.908Z,97667.33
2018-03-30T11:22:43.054Z,97672.50
2018-03-30T11:25:10.731Z,97670.80
2018-03-30T11:27:38.296Z,97666.52
2018-03-30T11:30:05.889Z,97663.13
2018-03-30T11:32:34.158Z,97670.58
2018-03-30T11:35:01.675Z,97671.27
2018-03-30T11:37:29.798Z,97675.40
2018-03-30T11:39:57.446Z,97668.68
2018-03-30T11:42:25.037Z,97675.47
2018-03-30T11:44:53.705Z,97674.01
2018-03-30T11:47:21.836Z,97677.01
2018-03-30T11:49:50.564Z,97678.67
2018-03-30T11:52:18.116Z,97682.20
2018-03-30T11:54:45.640Z,97669.67
2018-03-30T11:57:13.219Z,97675.61
2018-03-30T11:59:42.182Z,97670.73
2018-03-30T12:02:10.591Z,97664.55
2018-03-30T12:04:45.430Z,97667.39
2018-03-30T12:07:16.808Z,97648.53
2018-03-30T12:09:49.632Z,97646.50
2018-03-30T12:12:22.666Z,97649.19
2018-03-30T12:14:52.769Z,97644.54
2018-03-30T12:20:00.585Z,97625.86
2018-03-30T12:22:32.547Z,97627.67
2018-03-30T12:25:05.570Z,97616.77
2018-03-30T12:27:38.288Z,97614.46
2018-03-30T12:30:11.248Z,97625.54
2018-03-30T12:32:43.952Z,97623.64
2018-03-30T12:35:16.592Z,97613.58
2018-03-30T12:37:50.766Z,97623.61
2018-03-30T12:40:25.272Z,97615.30
2018-03-30T12:45:34.372Z,97620.83
2018-03-30T12:50:51.095Z,97622.81
2018-03-30T12:53:20.150Z,97610.41
2018-03-30T12:55:49.584Z,97621.48
2018-03-30T12:58:20.353Z,97628.00
2018-03-30T13:00:48.711Z,97614.91
2018-03-30T13:03:18.171Z,97617.31
2018-03-30T13:05:46.151Z,97633.03
2018-03-30T13:08:13.734Z,97622.21
2018-03-30T13:10:42.157Z,97643.61
2018-03-30T13:13:09.783Z,97632.59
2018-03-30T13:15:37.393Z,97634.39
2018-03-30T13:18:04.921Z,97635.98
2018-03-30T13:20:32.487Z,97630.59
2018-03-30T13:23:01.777Z,97641.81
2018-03-30T13:25:29.752Z,97624.16
2018-03-30T13:27:57.286Z,97632.54
2018-03-30T13:30:25.684Z,97629.64
2018-03-30T13:32:53.203Z,97629.00
2018-03-30T13:35:20.763Z,97631.77
2018-03-30T13:37:48.310Z,97646.80
2018-03-30T13:40:15.864Z,97651.44
2018-03-30T13:42:46.380Z,97650.95
2018-03-30T13:45:14.090Z,97650.77
2018-03-30T13:47:42.972Z,97657.61
2018-03-30T13:50:10.693Z,97656.18
2018-03-30T13:52:41.873Z,97665.70
2018-03-30T13:55:10.326Z,97661.57
2018-03-30T13:57:49.099Z,97660.79
2018-03-30T14:00:21.200Z,97667.83
2018-03-30T14:02:53.495Z,97668.05
2018-03-30T14:05:26.256Z,97676.22
2018-03-30T14:08:01.573Z,97668.89
2018-03-30T14:10:31.130Z,97670.38
2018-03-30T14:13:01.522Z,97673.01
2018-03-30T14:15:34.650Z,97653.82
2018-03-30T14:18:06.549Z,97655.20
2018-03-30T14:20:34.127Z,97651.25
2018-03-30T14:23:18.332Z,97644.64
2018-03-30T14:25:54.551Z,97637.58
2018-03-30T14:28:24.961Z,97645.13
2018-03-30T14:33:54.188Z,97630.27
2018-03-30T14:39:24.492Z,97631.02
2018-03-30T14:41:52.078Z,97623.45
2018-03-30T14:44:24.456Z,97619.23
2018-03-30T14:46:55.300Z,97621.14
2018-03-30T14:49:26.186Z,97620.12
2018-03-30T14:51:59.638Z,97615.98
2018-03-30T14:54:42.536Z,97616.33
2018-03-30T14:57:28.828Z,97625.56
2018-03-30T14:59:57.251Z,97629.80
2018-03-30T15:02:36.305Z,97638.66
2018-03-30T15:05:21.889Z,97630.97
2018-03-30T15:08:00.786Z,97640.53
2018-03-30T15:10:36.415Z,97646.30
2018-03-30T15:13:11.740Z,97655.09
2018-03-30T15:16:10.376Z,97642.95
2018-03-30T15:18:42.975Z,97633.36
2018-03-30T15:21:17.906Z,97639.51
2018-03-30T15:23:54.726Z,97645.75
2018-03-30T15:29:38.817Z,97647.48
2018-03-30T15:32:15.316Z,97645.39
2018-03-30T15:34:47.280Z,97643.55
2018-03-30T15:37:18.882Z,97631.53
2018-03-30T15:39:49.608Z,97645.72
2018-03-30T15:42:21.435Z,97638.87
2018-03-30T15:44:52.987Z,97645.45
2018-03-30T15:47:24.215Z,97637.11
2018-03-30T15:49:52.862Z,97635.99
2018-03-30T15:52:25.723Z,97635.59
2018-03-30T15:55:02.192Z,97640.55
2018-03-30T15:57:41.569Z,97637.20
2018-03-30T16:00:15.335Z,97645.87
2018-03-30T16:02:49.159Z,97632.04
2018-03-30T16:05:21.694Z,97628.86
2018-03-30T16:07:51.499Z,97624.78
2018-03-30T16:10:24.300Z,97623.27
2018-03-30T16:12:53.954Z,97616.75
2018-03-30T16:15:27.109Z,97622.89
2018-03-30T16:17:58.627Z,97616.75
2018-03-30T16:20:26.592Z,97618.89
2018-03-30T16:22:56.418Z,97612.23
2018-03-30T16:25:25.063Z,97605.23
2018-03-30T16:27:55.180Z,97605.84
2018-03-30T16:30:26.218Z,97604.02
2018-03-30T16:32:53.905Z,97619.01
2018-03-30T16:35:22.186Z,97613.49
2018-03-30T16:37:51.423Z,97605.06
2018-03-30T16:40:18.440Z,97598.23
2018-03-30T16:42:48.969Z,97589.01
2018-03-30T16:45:19.197Z,97590.28
2018-03-30T16:47:48.222Z,97600.20
2018-03-30T16:50:19.400Z,97588.93
2018-03-30T16:52:48.455Z,97592.52
2018-03-30T16:55:17.997Z,97604.25
2018-03-30T17:00:21.527Z,97598.61
2018-03-30T17:05:23.473Z,97594.16
2018-03-30T17:07:58.308Z,97593.55
2018-03-30T17:10:29.795Z,97587.41
2018-03-30T17:12:59.333Z,97588.64
2018-03-30T17:15:28.425Z,97590.93
2018-03-30T17:17:58.727Z,97594.20
2018-03-30T17:20:27.940Z,97602.38
2018-03-30T17:23:02.164Z,97607.08
2018-03-30T17:25:34.430Z,97601.67
2018-03-30T17:30:39.125Z,97607.05
2018-03-30T17:33:10.791Z,97608.78
2018-03-30T17:35:41.531Z,97629.41
2018-03-30T17:38:11.924Z,97607.97
2018-03-30T17:40:44.496Z,97618.50
2018-03-30T17:43:13.832Z,97609.52
2018-03-30T17:45:44.687Z,97613.48
2018-03-30T17:48:14.647Z,97614.38
2018-03-30T17:50:46.364Z,97624.92
2018-03-30T17:53:16.165Z,97627.34
2018-03-30T17:55:47.596Z,97630.61
2018-03-30T17:58:19.506Z,97637.67
2018-03-30T18:00:49.731Z,97641.88
2018-03-30T18:03:18.738Z,97638.77
2018-03-30T18:05:46.165Z,97632.95
2018-03-30T18:08:14.156Z,97643.39
2018-03-30T18:10:41.171Z,97641.27
2018-03-30T18:13:08.158Z,97638.52
2018-03-30T18:15:35.584Z,97639.14
2018-03-30T18:18:05.838Z,97650.05
2018-03-30T18:20:34.677Z,97656.06
2018-03-30T18:23:07.747Z,97648.00
2018-03-30T18:25:35.495Z,97652.72
2018-03-30T18:28:03.002Z,97639.23
2018-03-30T18:30:38.581Z,97633.09
2018-03-30T18:33:08.249Z,97638.36
2018-03-30T18:35:37.766Z,97642.03
2018-03-30T18:38:07.817Z,97651.23
2018-03-30T18:40:39.850Z,97658.09
2018-03-30T18:43:07.637Z,97647.03
2018-03-30T18:45:39.667Z,97642.70
2018-03-30T18:48:11.259Z,97636.98
2018-03-30T18:50:42.373Z,97641.10
2018-03-30T18:53:13.986Z,97646.08
2018-03-30T18:55:43.703Z,97648.98
2018-03-30T18:58:14.944Z,97653.03
2018-03-30T19:00:44.255Z,97647.44
2018-03-30T19:03:16.224Z,97619.05
2018-03-30T19:05:45.844Z,97645.59
2018-03-30T19:08:13.374Z,97658.78
2018-03-30T19:10:43.039Z,97673.53
2018-03-30T19:13:11.106Z,97666.29
2018-03-30T19:15:39.337Z,97670.84
2018-03-30T19:18:06.698Z,97667.89
2018-03-30T19:20:34.031Z,97676.16
2018-03-30T19:23:01.345Z,97670.94
2018-03-30T19:25:28.400Z,97672.37
2018-03-30T19:27:55.513Z,97664.22
2018-03-30T19:30:23.078Z,97674.98
2018-03-30T19:32:50.508Z,97682.70
2018-03-30T19:35:18.331Z,97674.63
2018-03-30T19:37:45.443Z,97675.59
2018-03-30T19:40:12.437Z,97669.57
2018-03-30T19:42:39.923Z,97673.08
2018-03-30T19:45:07.040Z,97678.56
2018-03-30T19:47:34.053Z,97678.72
2018-03-30T19:50:01.039Z,97668.87
2018-03-30T19:52:28.066Z,97672.44
2018-03-30T19:54:55.271Z,97672.20
2018-03-30T19:57:22.301Z,97678.20
2018-03-30T19:59:49.293Z,97680.48
2018-03-30T20:02:16.315Z,97675.66
2018-03-30T20:04:44.615Z,97684.14
2018-03-30T20:07:11.980Z,97674.39
2018-03-30T20:09:39.715Z,97671.93
2018-03-30T20:12:06.884Z,97678.98
2018-03-30T20:14:38.831Z,97684.87
2018-03-30T20:17:07.248Z,97675.94
2018-03-30T20:19:34.377Z,97678.27
2018-03-30T20:22:02.257Z,97669.84
2018-03-30T20:24:29.700Z,97669.19
2018-03-30T20:26:58.416Z,97657.84
2018-03-30T20:29:25.444Z,97671.14
2018-03-30T20:31:52.472Z,97673.63
2018-03-30T20:34:19.463Z,97662.24
2018-03-30T20:36:46.564Z,97666.32
2018-03-30T20:39:15.065Z,97653.21
2018-03-30T20:41:44.848Z,97646.91
2018-03-30T20:44:12.719Z,97652.67
2018-03-30T20:46:40.706Z,97656.48
2018-03-30T20:49:09.561Z,97659.97
2018-03-30T20:51:36.985Z,97646.09
2018-03-30T20:54:04.764Z,97651.68
2018-03-30T20:56:33.470Z,97655.70
2018-03-30T20:59:03.123Z,97652.43
2018-03-30T21:01:30.751Z,97643.94
2018-03-30T21:03:58.068Z,97642.75
2018-03-30T21:06:25.095Z,97642.16
2018-03-30T21:08:53.007Z,97640.20
2018-03-30T21:11:21.177Z,97642.04
2018-03-30T21:13:48.536Z,97639.52
2018-03-30T21:16:15.575Z,97641.45
2018-03-30T21:18:42.712Z,97640.09
2018-03-30T21:21:09.953Z,97640.95
2018-03-30T21:23:37.135Z,97634.59
2018-03-30T21:26:04.147Z,97639.11
2018-03-30T21:28:31.291Z,97644.75
2018-03-30T21:31:00.707Z,97637.44
2018-03-30T21:33:28.021Z,97630.80
2018-03-30T21:35:57.290Z,97631.59
2018-03-30T21:38:24.656Z,97639.38
2018-03-30T21:40:51.782Z,97646.58
2018-03-30T21:43:18.918Z,97646.76
2018-03-30T21:45:45.915Z,97640.88
2018-03-30T21:50:55.229Z,97638.45
2018-03-30T21:53:22.757Z,97645.69
2018-03-30T21:55:50.254Z,97646.63
2018-03-30T21:58:17.967Z,97643.15
2018-03-30T22:00:46.760Z,97641.13
2018-03-30T22:03:15.037Z,97643.16
2018-03-30T22:05:43.232Z,97650.90
2018-03-30T22:08:11.573Z,97645.11
2018-03-30T22:10:38.679Z,97646.25
2018-03-30T22:13:05.697Z,97654.50
2018-03-30T22:15:32.688Z,97648.63
2018-03-30T22:17:59.728Z,97647.92
2018-03-30T22:20:30.009Z,97648.72
2018-03-30T22:22:58.232Z,97649.31
2018-03-30T22:25:25.888Z,97663.03
2018-03-30T22:27:54.081Z,97646.97
2018-03-30T22:30:21.528Z,97655.50
2018-03-30T22:32:48.550Z,97652.27
2018-03-30T22:35:15.930Z,97658.72
2018-03-30T22:37:46.603Z,97658.70
2018-03-30T22:40:17.672Z,97650.22
2018-03-30T22:42:45.476Z,97656.73
2018-03-30T22:45:12.458Z,97658.59
2018-03-30T22:47:41.313Z,97657.40
2018-03-30T22:50:09.923Z,97667.72
2018-03-30T22:52:37.504Z,97661.25
2018-03-30T22:55:07.881Z,97661.84
2018-03-30T22:57:36.073Z,97660.02
2018-03-30T23:00:03.396Z,97666.11
2018-03-30T23:02:31.323Z,97675.80
2018-03-30T23:04:58.435Z,97670.60
2018-03-30T23:07:25.533Z,97675.64
2018-03-30T23:09:52.523Z,97674.92
2018-03-30T23:12:20.953Z,97681.63
2018-03-30T23:14:52.708Z,97668.00
2018-03-30T23:17:20.577Z,97672.38
2018-03-30T23:19:47.700Z,97677.95
2018-03-30T23:22:16.300Z,97683.05
2018-03-30T23:24:43.308Z,97684.25
2018-03-30T23:27:11.068Z,97678.59
2018-03-30T23:29:38.816Z,97685.05
2018-03-30T23:32:06.725Z,97675.86
2018-03-30T23:34:33.799Z,97677.68
2018-03-30T23:37:01.954Z,97681.78
2018-03-30T23:39:29.322Z,97674.66
2018-03-30T23:41:56.447Z,97682.07
2018-03-30T23:44:23.673Z,97681.88
2018-03-30T23:46:50.887Z,97681.59
2018-03-30T23:49:20.324Z,97677.05
2018-03-30T23:51:47.458Z,97681.11
2018-03-30T23:54:14.638Z,97677.88
2018-03-30T23:56:41.834Z,97676.44
2018-03-30T23:59:09.127Z,97670.34
